createdAt,value
2023-05-06T00:00:15.699Z,15.05
2023-05-06T00:02:43.194Z,15.38
2023-05-06T00:05:11.066Z,16.23
2023-05-06T00:07:38.979Z,16.75
2023-05-06T00:10:06.894Z,16.10
2023-05-06T00:12:34.316Z,15.25
2023-05-06T00:15:01.803Z,16.65
2023-05-06T00:17:29.183Z,15.52
2023-05-06T00:19:58.855Z,15.23
2023-05-06T00:22:26.234Z,14.73
2023-05-06T00:24:53.610Z,14.48
2023-05-06T00:27:21.011Z,14.18
2023-05-06T00:29:48.402Z,13.70
2023-05-06T00:32:15.760Z,14.45
2023-05-06T00:34:43.597Z,13.25
2023-05-06T00:37:11.297Z,14.52
2023-05-06T00:39:38.622Z,16.30
2023-05-06T00:42:06.161Z,16.35
2023-05-06T00:44:33.496Z,15.55
2023-05-06T00:47:01.701Z,20.10
2023-05-06T00:49:29.787Z,16.88
2023-05-06T00:51:58.126Z,17.48
2023-05-06T00:54:26.715Z,18.73
2023-05-06T00:56:54.691Z,28.92
2023-05-06T00:59:22.843Z,23.90
2023-05-06T01:01:50.269Z,19.38
2023-05-06T01:04:17.606Z,20.50
2023-05-06T01:06:55.325Z,20.15
2023-05-06T01:09:34.067Z,19.05
2023-05-06T01:12:04.478Z,17.55
2023-05-06T01:14:37.309Z,20.38
2023-05-06T01:17:06.572Z,19.90
2023-05-06T01:19:41.979Z,19.60
2023-05-06T01:22:10.817Z,21.42
2023-05-06T01:24:42.047Z,20.42
2023-05-06T01:27:09.870Z,19.88
2023-05-06T01:29:38.507Z,21.48
2023-05-06T01:32:22.027Z,19.45
2023-05-06T01:34:49.503Z,18.30
2023-05-06T01:37:27.077Z,18.27
2023-05-06T01:39:56.969Z,17.33
2023-05-06T01:42:25.444Z,14.98
2023-05-06T01:44:53.800Z,15.43
2023-05-06T01:47:21.315Z,16.60
2023-05-06T01:49:48.818Z,17.63
2023-05-06T01:52:19.186Z,14.23
2023-05-06T01:54:46.509Z,16.20
2023-05-06T01:57:13.958Z,14.38
2023-05-06T01:59:41.253Z,14.80
2023-05-06T02:02:08.659Z,13.52
2023-05-06T02:04:36.081Z,16.00
2023-05-06T02:07:03.698Z,12.43
2023-05-06T02:09:31.030Z,13.15
2023-05-06T02:11:58.370Z,11.23
2023-05-06T02:14:25.696Z,9.48
2023-05-06T02:16:53.094Z,10.98
2023-05-06T02:19:20.419Z,8.70
2023-05-06T02:21:47.870Z,9.68
2023-05-06T02:24:15.190Z,9.65
2023-05-06T02:26:42.582Z,7.60
2023-05-06T02:29:09.998Z,7.57
2023-05-06T02:31:37.433Z,7.07
2023-05-06T02:34:05.886Z,7.60
2023-05-06T02:36:33.460Z,7.72
2023-05-06T02:39:00.882Z,6.72
2023-05-06T02:41:28.249Z,7.63
2023-05-06T02:43:55.664Z,7.30
2023-05-06T02:46:23.310Z,7.57
2023-05-06T02:48:50.721Z,8.30
2023-05-06T02:51:18.074Z,7.65
2023-05-06T02:53:45.937Z,8.10
2023-05-06T02:56:13.296Z,8.30
2023-05-06T02:58:40.902Z,7.43
2023-05-06T03:01:08.296Z,7.20
2023-05-06T03:03:36.159Z,7.30
2023-05-06T03:06:03.497Z,6.10
2023-05-06T03:08:31.035Z,7.22
2023-05-06T03:10:58.424Z,6.20
2023-05-06T03:13:25.760Z,5.43
2023-05-06T03:15:56.788Z,4.93
2023-05-06T03:18:24.254Z,5.00
2023-05-06T03:20:51.877Z,4.75
2023-05-06T03:23:19.191Z,6.13
2023-05-06T03:25:46.606Z,5.70
2023-05-06T03:28:13.943Z,4.78
2023-05-06T03:30:41.373Z,5.47
2023-05-06T03:33:08.756Z,4.72
2023-05-06T03:35:36.208Z,8.00
2023-05-06T03:38:03.590Z,4.55
2023-05-06T03:40:31.307Z,5.53
2023-05-06T03:42:58.634Z,5.38
2023-05-06T03:45:26.018Z,5.72
2023-05-06T03:47:53.535Z,6.07
2023-05-06T03:50:20.932Z,6.18
2023-05-06T03:52:48.282Z,6.05
2023-05-06T03:55:15.675Z,8.05
2023-05-06T03:57:43.041Z,7.13
2023-05-06T04:00:10.836Z,7.85
2023-05-06T04:02:38.411Z,8.10
2023-05-06T04:05:06.388Z,8.73
2023-05-06T04:07:33.727Z,9.70
2023-05-06T04:10:01.125Z,9.73
2023-05-06T04:12:28.469Z,8.32
2023-05-06T04:14:55.840Z,8.80
2023-05-06T04:17:23.163Z,8.35
2023-05-06T04:19:50.497Z,11.13
2023-05-06T04:22:18.353Z,11.80
2023-05-06T04:24:45.939Z,12.38
2023-05-06T04:27:13.297Z,11.23
2023-05-06T04:29:40.662Z,17.52
2023-05-06T04:32:10.482Z,12.10
2023-05-06T04:34:37.860Z,12.43
2023-05-06T04:37:05.841Z,14.30
2023-05-06T04:39:33.457Z,11.00
2023-05-06T04:42:00.895Z,11.80
2023-05-06T04:44:29.659Z,10.25
2023-05-06T04:46:57.085Z,11.45
2023-05-06T04:49:24.389Z,11.45
2023-05-06T04:51:51.730Z,11.60
2023-05-06T04:54:19.033Z,12.18
2023-05-06T04:56:46.374Z,13.60
2023-05-06T04:59:13.708Z,12.60
2023-05-06T05:01:41.076Z,13.45
2023-05-06T05:04:08.432Z,12.55
2023-05-06T05:06:35.822Z,12.25
2023-05-06T05:09:03.221Z,13.90
2023-05-06T05:11:30.639Z,12.82
2023-05-06T05:13:59.577Z,13.07
2023-05-06T05:16:29.155Z,15.30
2023-05-06T05:18:56.602Z,11.80
2023-05-06T05:21:24.027Z,12.55
2023-05-06T05:23:51.370Z,13.55
2023-05-06T05:26:18.789Z,14.55
2023-05-06T05:28:46.344Z,13.00
2023-05-06T05:31:13.845Z,12.93
2023-05-06T05:33:41.367Z,13.50
2023-05-06T05:36:09.016Z,14.45
2023-05-06T05:38:36.382Z,14.05
2023-05-06T05:41:03.786Z,16.05
2023-05-06T05:43:31.579Z,14.85
2023-05-06T05:45:59.059Z,13.50
2023-05-06T05:48:26.484Z,13.65
2023-05-06T05:50:53.852Z,14.80
2023-05-06T05:53:21.171Z,13.30
2023-05-06T05:55:48.617Z,13.25
2023-05-06T05:58:16.058Z,17.73
2023-05-06T06:00:43.392Z,19.08
2023-05-06T06:03:11.381Z,13.90
2023-05-06T06:05:38.839Z,13.50
2023-05-06T06:08:06.770Z,14.23
2023-05-06T06:10:34.103Z,13.00
2023-05-06T06:13:01.446Z,14.25
2023-05-06T06:15:29.638Z,12.32
2023-05-06T06:17:57.238Z,13.95
2023-05-06T06:20:24.649Z,13.32
2023-05-06T06:22:51.976Z,14.85
2023-05-06T06:25:19.385Z,13.93
2023-05-06T06:27:46.833Z,13.25
2023-05-06T06:30:14.399Z,11.50
2023-05-06T06:32:48.678Z,12.75
2023-05-06T06:35:16.180Z,11.73
2023-05-06T06:37:43.619Z,12.70
2023-05-06T06:40:11.868Z,15.60
2023-05-06T06:42:39.308Z,12.27
2023-05-06T06:45:08.147Z,12.77
2023-05-06T06:47:35.778Z,9.95
2023-05-06T06:50:03.299Z,10.50
2023-05-06T06:52:30.704Z,8.82
2023-05-06T06:54:58.070Z,9.18
2023-05-06T06:57:25.487Z,12.45
2023-05-06T06:59:53.932Z,8.98
2023-05-06T07:02:21.871Z,9.25
2023-05-06T07:04:49.485Z,7.53
2023-05-06T07:07:16.876Z,7.90
2023-05-06T07:09:44.588Z,9.30
2023-05-06T07:12:12.355Z,7.57
2023-05-06T07:14:39.843Z,8.40
2023-05-06T07:17:07.235Z,8.38
2023-05-06T07:19:34.656Z,7.70
2023-05-06T07:22:03.179Z,7.68
2023-05-06T07:24:30.585Z,7.35
2023-05-06T07:26:57.967Z,9.40
2023-05-06T07:29:25.382Z,7.15
2023-05-06T07:31:52.676Z,6.97
2023-05-06T07:34:20.287Z,7.50
2023-05-06T07:36:47.613Z,6.20
2023-05-06T07:39:15.051Z,5.75
2023-05-06T07:41:42.410Z,5.85
2023-05-06T07:44:09.782Z,4.40
2023-05-06T07:46:37.189Z,6.32
2023-05-06T07:49:04.573Z,5.82
2023-05-06T07:51:32.100Z,6.18
2023-05-06T07:53:59.472Z,5.20
2023-05-06T07:56:26.821Z,7.50
2023-05-06T07:58:54.191Z,5.13
2023-05-06T08:01:21.637Z,6.90
2023-05-06T08:03:49.107Z,7.03
2023-05-06T08:06:16.568Z,7.15
2023-05-06T08:08:43.938Z,6.45
2023-05-06T08:11:11.430Z,6.05
2023-05-06T08:13:38.820Z,5.65
2023-05-06T08:16:07.022Z,7.25
2023-05-06T08:18:34.545Z,5.28
2023-05-06T08:21:01.948Z,4.38
2023-05-06T08:23:29.289Z,5.43
2023-05-06T08:25:56.797Z,5.75
2023-05-06T08:28:25.303Z,5.05
2023-05-06T08:30:52.869Z,5.20
2023-05-06T08:33:20.375Z,3.58
2023-05-06T08:35:48.326Z,4.90
2023-05-06T08:38:15.676Z,5.07
2023-05-06T08:40:44.205Z,5.40
2023-05-06T08:43:15.096Z,4.10
2023-05-06T08:45:42.952Z,5.47
2023-05-06T08:48:10.415Z,3.78
2023-05-06T08:50:42.299Z,4.00
2023-05-06T08:53:13.737Z,3.80
2023-05-06T08:55:42.361Z,3.30
2023-05-06T08:58:10.083Z,3.45
2023-05-06T09:00:38.011Z,3.67
2023-05-06T09:03:06.085Z,4.47
2023-05-06T09:05:33.690Z,28.15
2023-05-06T09:08:01.103Z,4.63
2023-05-06T09:10:33.264Z,3.30
2023-05-06T09:13:00.819Z,4.32
2023-05-06T09:15:28.261Z,3.80
2023-05-06T09:17:56.511Z,3.42
2023-05-06T09:20:23.978Z,3.63
2023-05-06T09:22:52.009Z,4.07
2023-05-06T09:25:19.378Z,4.65
2023-05-06T09:27:46.697Z,3.20
2023-05-06T09:30:14.350Z,4.53
2023-05-06T09:32:42.214Z,3.40
2023-05-06T09:35:11.434Z,3.60
2023-05-06T09:37:39.755Z,3.50
2023-05-06T09:40:07.459Z,3.58
2023-05-06T09:42:35.457Z,3.67
2023-05-06T09:45:03.105Z,3.88
2023-05-06T09:47:37.783Z,4.18
2023-05-06T09:50:05.500Z,3.58
2023-05-06T09:52:32.922Z,5.30
2023-05-06T09:55:00.431Z,3.67
2023-05-06T09:57:31.151Z,3.90
2023-05-06T09:59:58.590Z,4.78
2023-05-06T10:02:27.383Z,3.13
2023-05-06T10:04:57.430Z,2.22
2023-05-06T10:07:28.677Z,2.88
2023-05-06T10:09:57.756Z,2.40
2023-05-06T10:12:25.114Z,2.50
2023-05-06T10:14:52.443Z,2.40
2023-05-06T10:17:20.031Z,2.80
2023-05-06T10:19:47.914Z,2.40
2023-05-06T10:22:37.056Z,2.85
2023-05-06T10:25:17.034Z,2.50
2023-05-06T10:27:46.143Z,2.72
2023-05-06T10:30:17.226Z,2.85
2023-05-06T10:32:45.231Z,3.00
2023-05-06T10:35:31.582Z,2.60
2023-05-06T10:37:59.344Z,2.60
2023-05-06T10:40:26.731Z,1.88
2023-05-06T10:42:54.060Z,3.75
2023-05-06T10:45:21.480Z,2.88
2023-05-06T10:48:09.172Z,1.90
2023-05-06T10:50:36.602Z,2.65
2023-05-06T10:53:04.170Z,2.28
2023-05-06T10:55:35.578Z,2.00
2023-05-06T10:58:11.799Z,2.83
2023-05-06T11:00:39.444Z,2.22
2023-05-06T11:03:08.302Z,2.45
2023-05-06T11:05:56.378Z,2.67
2023-05-06T11:08:25.405Z,1.73
2023-05-06T11:10:53.402Z,2.85
2023-05-06T11:13:21.330Z,7.90
2023-05-06T11:15:50.988Z,2.42
2023-05-06T11:18:32.255Z,2.17
2023-05-06T11:21:02.869Z,3.95
2023-05-06T11:23:42.677Z,3.30
2023-05-06T11:26:10.598Z,7.90
2023-05-06T11:28:38.776Z,2.83
2023-05-06T11:31:06.180Z,3.60
2023-05-06T11:33:34.283Z,4.60
2023-05-06T11:36:02.050Z,4.82
2023-05-06T11:38:59.749Z,2.72
2023-05-06T11:41:27.080Z,2.67
2023-05-06T11:43:57.248Z,7.45
2023-05-06T11:46:25.672Z,3.30
2023-05-06T11:48:53.028Z,8.15
2023-05-06T11:51:23.876Z,8.52
2023-05-06T11:53:51.808Z,4.97
2023-05-06T11:56:19.143Z,8.13
2023-05-06T11:58:47.396Z,2.78
2023-05-06T12:01:14.740Z,1.98
2023-05-06T12:03:42.216Z,8.98
2023-05-06T12:06:09.718Z,28.77
2023-05-06T12:08:38.014Z,6.00
2023-05-06T12:11:06.828Z,1.95
2023-05-06T12:13:37.070Z,1.60
2023-05-06T12:16:05.030Z,1.85
2023-05-06T12:18:32.675Z,1.60
2023-05-06T12:21:06.121Z,2.22
2023-05-06T12:23:33.654Z,1.05
2023-05-06T12:26:05.009Z,6.25
2023-05-06T12:28:33.145Z,1.27
2023-05-06T12:31:00.756Z,1.27
2023-05-06T12:33:28.148Z,3.95
2023-05-06T12:36:07.097Z,1.02
2023-05-06T12:38:34.650Z,3.42
2023-05-06T12:41:02.295Z,1.30
2023-05-06T12:43:32.923Z,1.35
2023-05-06T12:46:07.494Z,3.78
2023-05-06T12:48:34.909Z,2.05
2023-05-06T12:51:17.596Z,1.85
2023-05-06T12:53:44.930Z,2.90
2023-05-06T12:56:12.252Z,1.30
2023-05-06T12:58:39.982Z,1.00
2023-05-06T13:01:10.602Z,2.13
2023-05-06T13:03:41.382Z,1.55
2023-05-06T13:06:09.011Z,1.15
2023-05-06T13:08:36.325Z,1.80
2023-05-06T13:11:04.027Z,1.58
2023-05-06T13:13:31.385Z,1.60
2023-05-06T13:15:58.719Z,0.95
2023-05-06T13:18:26.053Z,1.38
2023-05-06T13:20:53.401Z,1.35
2023-05-06T13:23:20.721Z,1.08
2023-05-06T13:26:02.795Z,1.10
2023-05-06T13:28:32.257Z,1.70
2023-05-06T13:30:59.658Z,0.95
2023-05-06T13:33:27.041Z,4.32
2023-05-06T13:35:54.497Z,2.40
2023-05-06T13:38:22.143Z,1.17
2023-05-06T13:40:52.951Z,0.98
2023-05-06T13:43:20.512Z,1.17
2023-05-06T13:45:47.919Z,2.47
2023-05-06T13:48:15.438Z,1.75
2023-05-06T13:50:43.114Z,1.45
2023-05-06T13:53:10.801Z,1.58
2023-05-06T13:55:38.279Z,1.70
2023-05-06T13:58:06.682Z,1.58
2023-05-06T14:00:34.839Z,1.30
2023-05-06T14:03:02.427Z,1.20
2023-05-06T14:05:29.863Z,2.42
2023-05-06T14:07:57.196Z,1.27
2023-05-06T14:10:24.629Z,2.15
2023-05-06T14:12:52.113Z,3.53
2023-05-06T14:15:19.541Z,1.40
2023-05-06T14:17:46.911Z,1.30
2023-05-06T14:20:14.256Z,1.67
2023-05-06T14:22:42.063Z,1.70
2023-05-06T14:25:09.822Z,1.20
2023-05-06T14:27:37.485Z,1.38
2023-05-06T14:30:08.622Z,1.70
2023-05-06T14:32:37.267Z,1.92
2023-05-06T14:35:05.090Z,1.33
2023-05-06T14:37:32.485Z,1.08
2023-05-06T14:39:59.800Z,1.30
2023-05-06T14:42:27.195Z,0.90
2023-05-06T14:44:55.146Z,2.28
2023-05-06T14:47:22.677Z,1.35
2023-05-06T14:49:53.478Z,0.88
2023-05-06T14:52:21.655Z,2.28
2023-05-06T14:54:48.982Z,1.73
2023-05-06T14:57:16.312Z,2.15
2023-05-06T14:59:43.694Z,3.30
2023-05-06T15:02:11.215Z,1.83
2023-05-06T15:04:38.625Z,1.63
2023-05-06T15:07:06.040Z,2.22
2023-05-06T15:09:33.438Z,1.27
2023-05-06T15:12:02.050Z,1.83
2023-05-06T15:14:29.357Z,1.98
2023-05-06T15:16:57.607Z,1.90
2023-05-06T15:19:25.501Z,2.17
2023-05-06T15:21:52.883Z,1.83
2023-05-06T15:24:20.691Z,1.30
2023-05-06T15:26:48.012Z,1.95
2023-05-06T15:29:15.408Z,1.15
2023-05-06T15:31:45.025Z,1.23
2023-05-06T15:34:13.019Z,0.90
2023-05-06T15:36:44.197Z,1.75
2023-05-06T15:39:12.762Z,1.50
2023-05-06T15:41:40.230Z,1.48
2023-05-06T15:44:09.985Z,2.03
2023-05-06T15:46:37.809Z,1.70
2023-05-06T15:51:35.916Z,1.15
2023-05-06T15:54:03.316Z,1.98
2023-05-06T15:59:01.673Z,1.30
2023-05-06T16:01:53.737Z,3.25
2023-05-06T16:04:16.600Z,3.53
2023-05-06T16:06:44.080Z,1.60
2023-05-06T16:09:11.498Z,1.75
2023-05-06T16:11:38.927Z,3.17
2023-05-06T16:14:06.389Z,1.33
2023-05-06T16:16:33.903Z,2.13
2023-05-06T16:19:01.251Z,3.92
2023-05-06T16:21:28.830Z,1.60
2023-05-06T16:23:56.215Z,2.38
2023-05-06T16:26:24.749Z,1.50
2023-05-06T16:28:53.851Z,2.60
2023-05-06T16:31:21.424Z,1.27
2023-05-06T16:33:49.468Z,1.52
2023-05-06T16:36:16.854Z,2.60
2023-05-06T16:38:44.170Z,3.03
2023-05-06T16:41:11.509Z,3.58
2023-05-06T16:43:38.867Z,3.17
2023-05-06T16:46:07.307Z,5.60
2023-05-06T16:48:34.837Z,3.10
2023-05-06T16:51:02.243Z,3.15
2023-05-06T16:53:29.716Z,3.45
2023-05-06T16:55:57.176Z,3.10
2023-05-06T16:58:24.763Z,5.03
2023-05-06T17:00:54.531Z,3.95
2023-05-06T17:03:22.707Z,4.30
2023-05-06T17:05:50.194Z,5.95
2023-05-06T17:08:17.522Z,4.40
2023-05-06T17:10:44.924Z,7.57
2023-05-06T17:13:12.337Z,8.13
2023-05-06T17:15:39.860Z,4.63
2023-05-06T17:18:07.339Z,4.93
2023-05-06T17:20:47.538Z,4.43
2023-05-06T17:23:22.099Z,4.53
2023-05-06T17:25:49.478Z,4.72
2023-05-06T17:31:04.239Z,7.70
2023-05-06T17:33:31.663Z,5.63
2023-05-06T17:35:59.039Z,4.53
2023-05-06T17:38:26.512Z,6.35
2023-05-06T17:40:53.872Z,6.15
2023-05-06T17:43:21.344Z,4.85
2023-05-06T17:45:48.806Z,5.43
2023-05-06T17:48:16.166Z,6.07
2023-05-06T17:50:43.562Z,5.15
2023-05-06T17:53:10.874Z,5.15
2023-05-06T17:55:38.216Z,5.93
2023-05-06T17:58:05.545Z,5.78
2023-05-06T18:00:32.910Z,6.70
2023-05-06T18:03:00.556Z,6.30
2023-05-06T18:05:28.108Z,6.68
2023-05-06T18:07:55.609Z,10.20
2023-05-06T18:10:23.005Z,7.88
2023-05-06T18:12:50.624Z,9.95
2023-05-06T18:15:17.992Z,9.40
2023-05-06T18:17:46.225Z,12.15
2023-05-06T18:20:13.881Z,12.30
2023-05-06T18:22:43.081Z,12.65
2023-05-06T18:25:10.961Z,11.73
2023-05-06T18:27:38.586Z,13.13
2023-05-06T18:30:06.717Z,16.17
2023-05-06T18:32:34.816Z,17.58
2023-05-06T18:35:02.357Z,14.43
2023-05-06T18:37:29.800Z,19.75
2023-05-06T18:39:57.190Z,17.13
2023-05-06T18:42:24.546Z,15.65
2023-05-06T18:44:51.951Z,20.15
2023-05-06T18:47:22.316Z,17.88
2023-05-06T18:49:49.708Z,18.40
2023-05-06T18:52:17.949Z,17.55
2023-05-06T18:54:46.544Z,20.92
2023-05-06T18:57:14.125Z,17.80
2023-05-06T18:59:41.593Z,20.70
2023-05-06T19:02:09.024Z,19.30
2023-05-06T19:04:36.537Z,18.58
2023-05-06T19:07:04.032Z,17.38
2023-05-06T19:09:33.053Z,19.52
2023-05-06T19:12:00.404Z,17.70
2023-05-06T19:14:27.756Z,24.73
2023-05-06T19:16:55.178Z,20.63
2023-05-06T19:19:22.581Z,23.02
2023-05-06T19:21:49.930Z,21.35
2023-05-06T19:24:17.311Z,23.55
2023-05-06T19:26:46.307Z,21.38
2023-05-06T19:29:14.876Z,21.45
2023-05-06T19:31:42.259Z,23.95
2023-05-06T19:34:09.995Z,25.27
2023-05-06T19:36:37.372Z,20.85
2023-05-06T19:39:04.718Z,22.38
2023-05-06T19:41:32.082Z,24.40
2023-05-06T19:43:59.461Z,23.55
2023-05-06T19:46:26.831Z,21.77
2023-05-06T19:48:54.199Z,24.00
2023-05-06T19:51:21.558Z,28.40
2023-05-06T19:53:49.258Z,24.30
2023-05-06T19:56:17.393Z,26.17
2023-05-06T19:58:44.861Z,25.00
2023-05-06T20:01:12.395Z,24.10
2023-05-06T20:03:39.870Z,23.45
2023-05-06T20:06:07.521Z,24.67
2023-05-06T20:08:35.554Z,24.38
2023-05-06T20:11:03.095Z,23.33
2023-05-06T20:13:30.586Z,24.63
2023-05-06T20:15:58.016Z,24.13
2023-05-06T20:18:25.872Z,24.23
2023-05-06T20:20:53.203Z,25.17
2023-05-06T20:23:20.540Z,26.08
2023-05-06T20:25:47.914Z,21.08
2023-05-06T20:28:15.246Z,21.13
2023-05-06T20:30:42.633Z,23.88
2023-05-06T20:33:09.993Z,26.30
2023-05-06T20:35:38.520Z,29.17
2023-05-06T20:38:06.682Z,22.85
2023-05-06T20:40:35.929Z,22.63
2023-05-06T20:43:03.336Z,23.42
2023-05-06T20:45:31.619Z,23.52
2023-05-06T20:47:59.176Z,28.00
2023-05-06T20:50:28.699Z,25.30
2023-05-06T20:52:56.400Z,24.25
2023-05-06T20:55:24.790Z,24.08
2023-05-06T20:57:52.316Z,25.90
2023-05-06T21:00:19.836Z,26.33
2023-05-06T21:02:47.224Z,25.80
2023-05-06T21:05:14.821Z,23.13
2023-05-06T21:07:42.336Z,25.00
2023-05-06T21:10:11.270Z,23.55
2023-05-06T21:12:38.847Z,24.08
2023-05-06T21:15:06.486Z,25.80
2023-05-06T21:17:34.040Z,24.02
2023-05-06T21:20:02.052Z,24.45
2023-05-06T21:22:30.906Z,22.80
2023-05-06T21:24:58.328Z,24.33
2023-05-06T21:27:25.670Z,23.65
2023-05-06T21:29:53.115Z,24.25
2023-05-06T21:32:20.520Z,27.55
2023-05-06T21:34:47.952Z,22.52
2023-05-06T21:37:15.282Z,24.05
2023-05-06T21:39:42.617Z,25.25
2023-05-06T21:42:10.040Z,24.70
2023-05-06T21:44:37.810Z,24.50
2023-05-06T21:47:05.192Z,20.75
2023-05-06T21:49:32.545Z,26.60
2023-05-06T21:51:59.866Z,27.05
2023-05-06T21:54:28.527Z,24.25
2023-05-06T21:56:55.841Z,24.13
2023-05-06T21:59:23.168Z,25.80
2023-05-06T22:01:50.650Z,27.75
2023-05-06T22:04:20.175Z,25.02
2023-05-06T22:06:47.539Z,27.52
2023-05-06T22:09:14.899Z,24.88
2023-05-06T22:11:42.253Z,23.88
2023-05-06T22:14:09.745Z,26.70
2023-05-06T22:16:38.396Z,23.02
2023-05-06T22:19:06.756Z,19.38
2023-05-06T22:21:37.262Z,21.73
2023-05-06T22:24:04.668Z,22.13
2023-05-06T22:26:33.237Z,22.13
2023-05-06T22:29:00.587Z,24.08
2023-05-06T22:31:28.020Z,24.35
2023-05-06T22:33:58.123Z,22.35
2023-05-06T22:36:28.075Z,22.05
2023-05-06T22:38:55.475Z,21.05
2023-05-06T22:41:22.855Z,18.42
2023-05-06T22:43:50.178Z,21.65
2023-05-06T22:46:17.631Z,21.77
2023-05-06T22:48:45.091Z,21.08
2023-05-06T22:51:12.572Z,20.58
2023-05-06T22:53:39.957Z,21.42
2023-05-06T22:56:07.549Z,21.08
2023-05-06T22:58:34.893Z,21.10
2023-05-06T23:01:02.426Z,21.55
2023-05-06T23:03:29.808Z,20.15
2023-05-06T23:05:57.220Z,22.70
2023-05-06T23:08:24.535Z,22.05
2023-05-06T23:10:51.861Z,21.75
2023-05-06T23:13:19.239Z,22.60
2023-05-06T23:15:46.613Z,21.80
2023-05-06T23:18:14.037Z,19.92
2023-05-06T23:20:42.433Z,20.77
2023-05-06T23:23:10.902Z,22.33
2023-05-06T23:25:38.261Z,20.27
2023-05-06T23:28:06.163Z,22.77
2023-05-06T23:30:33.645Z,21.83
2023-05-06T23:33:01.303Z,20.55
2023-05-06T23:35:28.664Z,21.25
2023-05-06T23:37:56.124Z,23.45
2023-05-06T23:40:23.441Z,22.17
2023-05-06T23:42:50.836Z,22.80
2023-05-06T23:45:19.853Z,20.73
2023-05-06T23:47:47.671Z,21.00
2023-05-06T23:50:15.184Z,20.20
2023-05-06T23:52:42.528Z,21.40
2023-05-06T23:55:10.294Z,22.80
2023-05-06T23:57:37.933Z,20.77
